Portland, Arkansas
Current Conditions -  °F | °C
As of 11:53 AM on Tuesday 21 Oct 2014 (Local Time) from KLLQ Reporting Station
Few Clouds Few Clouds  
Wind Chill: 23°   Ceiling: Unl
Heat Index: 23°   Visibility: 10mi
Dew Point: 16°   Wind: 3mph
Humidity: 62%   Direction: 170°S
Pressure: 30.11"   Gusts: NA
Location:  33.24°N, 91.51°W
Report Text: KLLQ 211653Z AUTO 17003KT 10SM FEW034 23/16 A3011 RMK AO2 RAB09E19 SLP192 P0000 T02330156
Loading
Personal Weather Stations






























Interactive Weather Map
Tropical Storm Tracking
New forecast layout! Learn more

10-Day Weather Forecast

Advertisements
Track Severe Weather on mobile